createdAt,value
2023-04-11T00:02:16.218Z,94847.47
2023-04-11T00:04:44.686Z,94852.84
2023-04-11T00:07:12.815Z,94845.06
2023-04-11T00:09:42.258Z,94847.53
2023-04-11T00:12:10.372Z,94853.44
2023-04-11T00:14:38.523Z,94834.50
2023-04-11T00:17:10.217Z,94833.53
2023-04-11T00:19:38.320Z,94837.19
2023-04-11T00:22:06.497Z,94833.53
2023-04-11T00:24:35.014Z,94833.84
2023-04-11T00:27:04.541Z,94831.88
2023-04-11T00:29:36.142Z,94836.06
2023-04-11T00:32:04.968Z,94834.72
2023-04-11T00:34:34.295Z,94835.94
2023-04-11T00:37:03.332Z,94832.78
2023-04-11T00:39:35.134Z,94836.31
2023-04-11T00:42:09.779Z,94834.34
2023-04-11T00:44:40.420Z,94839.09
2023-04-11T00:47:09.982Z,94824.25
2023-04-11T00:49:38.535Z,94833.94
2023-04-11T00:52:07.522Z,94826.41
2023-04-11T00:54:35.787Z,94831.84
2023-04-11T00:57:06.812Z,94830.34
2023-04-11T00:59:37.325Z,94836.38
2023-04-11T01:02:06.041Z,94832.16
2023-04-11T01:04:34.113Z,94827.09
2023-04-11T01:07:06.469Z,94833.72
2023-04-11T01:09:36.713Z,94837.22
2023-04-11T01:12:06.927Z,94834.13
2023-04-11T01:14:36.262Z,94835.44
2023-04-11T01:17:04.444Z,94827.59
2023-04-11T01:19:32.839Z,94830.50
2023-04-11T01:22:03.059Z,94836.53
2023-04-11T01:24:33.268Z,94825.75
2023-04-11T01:27:02.544Z,94826.44
2023-04-11T01:29:32.205Z,94830.19
2023-04-11T01:32:00.242Z,94827.44
2023-04-11T01:34:29.643Z,94821.81
2023-04-11T01:36:58.138Z,94824.44
2023-04-11T01:39:26.182Z,94769.44
2023-04-11T01:41:58.610Z,94810.41
2023-04-11T01:44:27.536Z,94742.56
2023-04-11T01:46:56.043Z,94814.94
2023-04-11T01:49:26.150Z,94815.56
2023-04-11T01:51:54.310Z,94806.84
2023-04-11T01:54:22.285Z,94809.31
2023-04-11T01:56:50.562Z,94796.63
2023-04-11T01:59:20.089Z,94801.78
2023-04-11T02:01:48.239Z,94806.91
2023-04-11T02:04:16.494Z,94812.97
2023-04-11T02:06:44.690Z,94798.66
2023-04-11T02:09:12.921Z,94806.28
2023-04-11T02:11:41.807Z,94807.28
2023-04-11T02:14:10.086Z,94808.50
2023-04-11T02:16:52.553Z,94811.44
2023-04-11T02:19:21.481Z,94810.31
2023-04-11T02:21:49.840Z,94805.50
2023-04-11T02:24:17.796Z,94811.53
2023-04-11T02:26:45.791Z,94808.75
2023-04-11T02:29:13.726Z,94809.59
2023-04-11T02:31:43.034Z,94801.09
2023-04-11T02:34:12.615Z,94809.72
2023-04-11T02:36:41.856Z,94810.59
2023-04-11T02:39:10.184Z,94800.19
2023-04-11T02:41:40.078Z,94812.84
2023-04-11T02:44:08.192Z,94819.75
2023-04-11T02:46:36.604Z,94806.59
2023-04-11T02:49:05.064Z,94809.59
2023-04-11T02:51:34.862Z,94807.69
2023-04-11T02:54:03.280Z,94790.31
2023-04-11T02:56:31.721Z,94791.00
2023-04-11T02:58:59.628Z,94786.16
2023-04-11T03:01:28.264Z,94787.25
2023-04-11T03:03:56.372Z,94787.47
2023-04-11T03:06:24.696Z,94794.13
2023-04-11T03:08:54.570Z,94778.31
2023-04-11T03:11:23.199Z,94788.75
2023-04-11T03:13:52.482Z,94783.13
2023-04-11T03:16:20.544Z,94785.75
2023-04-11T03:18:48.951Z,94788.00
2023-04-11T03:21:17.416Z,94778.81
2023-04-11T03:23:45.582Z,94783.34
2023-04-11T03:26:15.032Z,94783.56
2023-04-11T03:28:43.032Z,94779.53
2023-04-11T03:31:11.896Z,94782.84
2023-04-11T03:33:40.330Z,94793.53
2023-04-11T03:36:09.903Z,94786.97
2023-04-11T03:38:37.966Z,94775.06
2023-04-11T03:41:07.576Z,94789.19
2023-04-11T03:43:37.192Z,94778.66
2023-04-11T03:46:05.792Z,94771.88
2023-04-11T03:48:33.898Z,94776.88
2023-04-11T03:51:01.984Z,94777.66
2023-04-11T03:53:30.007Z,94785.31
2023-04-11T03:55:57.972Z,94768.75
2023-04-11T03:58:26.889Z,94781.50
2023-04-11T04:00:56.784Z,94785.81
2023-04-11T04:03:25.218Z,94796.69
2023-04-11T04:05:53.582Z,94779.78
2023-04-11T04:08:21.716Z,94749.06
2023-04-11T04:10:49.669Z,94796.38
2023-04-11T04:13:17.846Z,94786.78
2023-04-11T04:15:45.742Z,94796.59
2023-04-11T04:18:15.401Z,94781.50
2023-04-11T04:20:43.472Z,94782.38
2023-04-11T04:23:14.032Z,94783.28
2023-04-11T04:25:42.298Z,94779.59
2023-04-11T04:28:10.800Z,94774.13
2023-04-11T04:30:39.199Z,94770.47
2023-04-11T04:33:12.544Z,94730.78
2023-04-11T04:35:42.469Z,94773.25
2023-04-11T04:38:18.228Z,94781.41
2023-04-11T04:40:46.854Z,94775.63
2023-04-11T04:43:18.940Z,94777.72
2023-04-11T04:45:46.942Z,94764.09
2023-04-11T04:48:15.233Z,94772.38
2023-04-11T04:50:45.933Z,94753.69
2023-04-11T04:53:13.987Z,94759.69
2023-04-11T04:55:42.462Z,94766.13
2023-04-11T04:58:10.544Z,94763.84
2023-04-11T05:00:38.446Z,94774.72
2023-04-11T05:03:08.661Z,94756.78
2023-04-11T05:05:37.025Z,94762.75
2023-04-11T05:08:06.721Z,94777.66
2023-04-11T05:10:35.060Z,94770.38
2023-04-11T05:13:03.419Z,94776.13
2023-04-11T05:15:31.423Z,94768.09
2023-04-11T05:17:59.446Z,94772.31
2023-04-11T05:20:29.903Z,94743.47
2023-04-11T05:22:58.163Z,94763.91
2023-04-11T05:25:28.374Z,94764.53
2023-04-11T05:27:57.729Z,94757.91
2023-04-11T05:30:26.225Z,94761.78
2023-04-11T05:32:54.585Z,94761.94
2023-04-11T05:35:22.940Z,94762.81
2023-04-11T05:37:51.053Z,94765.34
2023-04-11T05:40:19.583Z,94741.16
2023-04-11T05:42:50.294Z,94746.66
2023-04-11T05:45:18.478Z,94751.16
2023-04-11T05:47:46.842Z,94746.41
2023-04-11T05:50:15.951Z,94757.44
2023-04-11T05:52:46.324Z,94749.16
2023-04-11T05:55:14.365Z,94706.16
2023-04-11T05:57:42.420Z,94745.16
2023-04-11T06:00:14.828Z,94740.63
2023-04-11T06:02:43.565Z,94742.34
2023-04-11T06:05:12.675Z,94731.09
2023-04-11T06:07:41.995Z,94732.47
2023-04-11T06:10:11.094Z,94730.22
2023-04-11T06:12:39.069Z,94715.91
2023-04-11T06:15:09.776Z,94710.31
2023-04-11T06:17:40.667Z,94724.41
2023-04-11T06:20:10.782Z,94728.50
2023-04-11T06:22:40.378Z,94731.34
2023-04-11T06:25:09.617Z,94686.03
2023-04-11T06:27:38.095Z,94730.81
2023-04-11T06:30:07.520Z,94726.78
2023-04-11T06:32:35.567Z,94723.34
2023-04-11T06:35:06.200Z,94724.28
2023-04-11T06:37:34.811Z,94721.72
2023-04-11T06:40:05.514Z,94714.16
2023-04-11T06:42:33.787Z,94715.59
2023-04-11T06:45:02.546Z,94710.22
2023-04-11T06:47:31.962Z,94705.09
2023-04-11T06:49:59.978Z,94700.91
2023-04-11T06:52:30.380Z,94700.94
2023-04-11T06:54:58.546Z,94698.53
2023-04-11T06:57:27.045Z,94717.44
2023-04-11T06:59:56.321Z,94713.41
2023-04-11T07:02:25.910Z,94721.66
2023-04-11T07:04:54.564Z,94718.97
2023-04-11T07:07:22.562Z,94723.91
2023-04-11T07:09:52.142Z,94712.31
2023-04-11T07:12:20.158Z,94703.16
2023-04-11T07:14:50.899Z,94710.56
2023-04-11T07:17:18.834Z,94702.13
2023-04-11T07:19:47.115Z,94708.31
2023-04-11T07:22:15.053Z,94706.19
2023-04-11T07:24:43.655Z,94661.91
2023-04-11T07:27:14.711Z,94705.09
2023-04-11T07:29:43.554Z,94701.38
2023-04-11T07:32:11.555Z,94686.84
2023-04-11T07:34:40.743Z,94693.38
2023-04-11T07:37:08.766Z,94696.41
2023-04-11T07:39:36.957Z,94692.56
2023-04-11T07:42:05.121Z,94689.38
2023-04-11T07:44:34.599Z,94698.31
2023-04-11T07:47:03.141Z,94683.16
2023-04-11T07:49:31.565Z,94688.59
2023-04-11T07:51:59.705Z,94684.25
2023-04-11T07:54:28.612Z,94688.91
2023-04-11T07:56:57.191Z,94678.19
2023-04-11T07:59:25.433Z,94676.47
2023-04-11T08:02:02.210Z,94674.94
2023-04-11T08:04:32.752Z,94671.91
2023-04-11T08:07:01.122Z,94662.47
2023-04-11T08:09:29.301Z,94662.53
2023-04-11T08:11:58.610Z,94629.28
2023-04-11T08:14:26.801Z,94656.09
2023-04-11T08:16:55.578Z,94660.59
2023-04-11T08:19:25.139Z,94654.06
2023-04-11T08:21:53.275Z,94662.78
2023-04-11T08:24:21.862Z,94643.41
2023-04-11T08:26:50.918Z,94645.50
2023-04-11T08:29:19.961Z,94636.16
2023-04-11T08:31:48.231Z,94640.50
2023-04-11T08:34:16.946Z,94636.72
2023-04-11T08:36:47.739Z,94645.88
2023-04-11T08:39:15.682Z,94633.91
2023-04-11T08:41:44.471Z,94587.94
2023-04-11T08:44:13.263Z,94579.78
2023-04-11T08:46:44.322Z,94630.13
2023-04-11T08:49:12.507Z,94627.88
2023-04-11T08:51:44.926Z,94627.19
2023-04-11T08:54:16.716Z,94630.03
2023-04-11T08:56:45.017Z,94620.28
2023-04-11T08:59:13.259Z,94627.31
2023-04-11T09:01:41.555Z,94620.38
2023-04-11T09:04:12.389Z,94611.94
2023-04-11T09:06:42.838Z,94610.78
2023-04-11T09:09:31.576Z,94605.75
2023-04-11T09:11:59.999Z,94619.88
2023-04-11T09:14:28.377Z,94604.03
2023-04-11T09:16:58.797Z,94601.31
2023-04-11T09:19:27.690Z,94585.59
2023-04-11T09:21:56.886Z,94588.47
2023-04-11T09:24:26.506Z,94586.38
2023-04-11T09:27:10.030Z,94570.22
2023-04-11T09:29:42.245Z,94580.53
2023-04-11T09:32:31.660Z,94568.75
2023-04-11T09:35:11.208Z,94520.06
2023-04-11T09:37:46.973Z,94511.28
2023-04-11T09:40:19.260Z,94566.13
2023-04-11T09:42:50.637Z,94574.84
2023-04-11T09:45:20.663Z,94564.56
2023-04-11T09:47:51.307Z,94546.59
2023-04-11T09:50:20.253Z,94560.91
2023-04-11T09:52:48.611Z,94555.78
2023-04-11T09:55:19.569Z,94558.94
2023-04-11T09:57:53.333Z,94547.22
2023-04-11T10:00:24.329Z,94536.50
2023-04-11T10:02:54.149Z,94540.91
2023-04-11T10:05:27.750Z,94551.09
2023-04-11T10:08:01.932Z,94533.91
2023-04-11T10:10:31.115Z,94528.84
2023-04-11T10:13:03.569Z,94537.75
2023-04-11T10:15:31.731Z,94528.47
2023-04-11T10:18:10.637Z,94531.97
2023-04-11T10:20:44.018Z,94518.38
2023-04-11T10:23:13.068Z,94514.00
2023-04-11T10:25:52.292Z,94517.31
2023-04-11T10:28:48.513Z,94508.88
2023-04-11T10:31:19.909Z,94498.97
2023-04-11T10:34:15.662Z,94492.53
2023-04-11T10:37:05.090Z,94488.38
2023-04-11T10:40:10.403Z,94493.97
2023-04-11T10:42:40.835Z,94488.13
2023-04-11T10:45:18.455Z,94475.84
2023-04-11T10:48:05.977Z,94472.09
2023-04-11T10:50:37.059Z,94413.06
2023-04-11T10:53:07.683Z,94452.28
2023-04-11T10:55:49.637Z,94464.97
2023-04-11T10:58:19.863Z,94470.72
2023-04-11T11:01:31.876Z,94471.16
2023-04-11T11:04:07.059Z,94470.34
2023-04-11T11:06:46.058Z,94452.44
2023-04-11T11:09:23.461Z,94454.25
2023-04-11T11:12:07.613Z,94457.78
2023-04-11T11:14:35.796Z,94454.53
2023-04-11T11:17:04.243Z,94438.25
2023-04-11T11:19:36.321Z,94440.31
2023-04-11T11:22:06.471Z,94431.13
2023-04-11T11:24:34.368Z,94433.94
2023-04-11T11:27:02.562Z,94446.31
2023-04-11T11:29:36.105Z,94441.78
2023-04-11T11:32:04.754Z,94438.97
2023-04-11T11:34:36.222Z,94429.47
2023-04-11T11:37:05.777Z,94430.16
2023-04-11T11:39:34.289Z,94423.69
2023-04-11T11:42:03.485Z,94420.78
2023-04-11T11:44:32.755Z,94410.34
2023-04-11T11:47:04.534Z,94411.34
2023-04-11T11:49:47.168Z,94400.75
2023-04-11T11:52:33.058Z,94407.91
2023-04-11T11:55:03.781Z,94387.13
2023-04-11T11:57:31.997Z,94385.91
2023-04-11T12:00:05.478Z,94384.41
2023-04-11T12:02:36.413Z,94385.88
2023-04-11T12:05:07.376Z,94377.13
2023-04-11T12:07:38.709Z,94376.75
2023-04-11T12:10:09.609Z,94355.22
2023-04-11T12:12:39.090Z,94344.31
2023-04-11T12:15:12.470Z,94372.84
2023-04-11T12:17:41.161Z,94371.59
2023-04-11T12:20:12.102Z,94367.25
2023-04-11T12:22:40.434Z,94368.06
2023-04-11T12:25:09.972Z,94373.66
2023-04-11T12:27:38.809Z,94322.13
2023-04-11T12:30:08.149Z,94355.66
2023-04-11T12:32:36.793Z,94352.47
2023-04-11T12:35:08.000Z,94342.97
2023-04-11T12:37:37.459Z,94341.91
2023-04-11T12:40:11.093Z,94342.00
2023-04-11T12:42:49.554Z,94338.69
2023-04-11T12:45:24.732Z,94282.56
2023-04-11T12:47:56.162Z,94343.72
2023-04-11T12:50:24.904Z,94334.88
2023-04-11T12:52:55.592Z,94331.59
2023-04-11T12:55:24.559Z,94328.97
2023-04-11T12:57:52.715Z,94326.81
2023-04-11T13:00:21.328Z,94312.00
2023-04-11T13:02:49.745Z,94310.03
2023-04-11T13:05:18.273Z,94316.97
2023-04-11T13:07:46.760Z,94304.09
2023-04-11T13:10:16.923Z,94318.22
2023-04-11T13:12:46.725Z,94301.28
2023-04-11T13:15:15.665Z,94303.78
2023-04-11T13:17:44.455Z,94293.69
2023-04-11T13:20:13.945Z,94296.88
2023-04-11T13:22:43.088Z,94292.63
2023-04-11T13:25:12.612Z,94298.59
2023-04-11T13:27:42.850Z,94289.19
2023-04-11T13:30:12.071Z,94280.00
2023-04-11T13:32:40.754Z,94248.47
2023-04-11T13:35:10.372Z,94284.47
2023-04-11T13:37:38.429Z,94287.19
2023-04-11T13:40:08.822Z,94289.16
2023-04-11T13:42:36.846Z,94285.44
2023-04-11T13:45:07.437Z,94280.38
2023-04-11T13:47:38.228Z,94279.31
2023-04-11T13:50:09.603Z,94288.59
2023-04-11T13:52:37.928Z,94280.69
2023-04-11T13:55:07.225Z,94278.72
2023-04-11T13:57:35.438Z,94242.03
2023-04-11T14:00:11.328Z,94273.06
2023-04-11T14:02:41.382Z,94278.75
2023-04-11T14:05:10.797Z,94276.28
2023-04-11T14:07:39.256Z,94280.97
2023-04-11T14:10:08.185Z,94275.00
2023-04-11T14:12:36.718Z,94267.59
2023-04-11T14:15:06.101Z,94270.69
2023-04-11T14:17:34.443Z,94280.63
2023-04-11T14:20:06.920Z,94289.31
2023-04-11T14:22:35.201Z,94276.09
2023-04-11T14:25:03.064Z,94277.38
2023-04-11T14:27:31.053Z,94263.50
2023-04-11T14:29:59.223Z,94273.66
2023-04-11T14:32:27.323Z,94272.25
2023-04-11T14:34:56.144Z,94269.78
2023-04-11T14:37:25.887Z,94261.38
2023-04-11T14:39:53.852Z,94256.59
2023-04-11T14:42:23.051Z,94266.03
2023-04-11T14:44:51.896Z,94267.47
2023-04-11T14:47:20.389Z,94257.78
2023-04-11T14:49:48.313Z,94260.53
2023-04-11T14:52:16.483Z,94252.16
2023-04-11T14:54:45.798Z,94260.31
2023-04-11T14:57:13.895Z,94254.16
2023-04-11T14:59:43.291Z,94263.56
2023-04-11T15:02:12.061Z,94267.72
2023-04-11T15:04:40.207Z,94251.91
2023-04-11T15:07:08.943Z,94245.41
2023-04-11T15:09:36.822Z,94255.63
2023-04-11T15:12:06.912Z,94256.41
2023-04-11T15:14:35.177Z,94250.50
2023-04-11T15:17:03.089Z,94247.72
2023-04-11T15:19:31.533Z,94246.66
2023-04-11T15:21:59.692Z,94191.47
2023-04-11T15:24:27.873Z,94251.31
2023-04-11T15:26:56.824Z,94254.34
2023-04-11T15:29:26.844Z,94252.94
2023-04-11T15:31:54.799Z,94245.13
2023-04-11T15:34:23.449Z,94275.69
2023-04-11T15:36:51.680Z,94263.81
2023-04-11T15:39:19.572Z,94251.56
2023-04-11T15:41:47.702Z,94268.13
2023-04-11T15:44:16.059Z,94271.56
2023-04-11T15:46:47.235Z,94263.91
2023-04-11T15:49:17.076Z,94253.41
2023-04-11T15:51:46.088Z,94257.13
2023-04-11T15:54:13.978Z,94257.06
2023-04-11T15:56:42.322Z,94258.50
2023-04-11T15:59:12.942Z,94260.91
2023-04-11T16:01:41.791Z,94256.59
2023-04-11T16:04:12.226Z,94251.16
2023-04-11T16:06:40.477Z,94258.28
2023-04-11T16:09:08.757Z,94259.78
2023-04-11T16:11:38.744Z,94261.78
2023-04-11T16:14:06.832Z,94264.41
2023-04-11T16:16:35.076Z,94257.69
2023-04-11T16:19:03.318Z,94227.47
2023-04-11T16:21:32.648Z,94249.34
2023-04-11T16:24:00.660Z,94249.72
2023-04-11T16:26:29.047Z,94252.03
2023-04-11T16:28:57.227Z,94252.19
2023-04-11T16:31:25.620Z,94264.25
2023-04-11T16:33:55.411Z,94262.81
2023-04-11T16:36:23.683Z,94259.41
2023-04-11T16:38:52.976Z,94260.63
2023-04-11T16:41:21.397Z,94255.91
2023-04-11T16:43:49.612Z,94250.34
2023-04-11T16:46:17.656Z,94262.28
2023-04-11T16:48:46.079Z,94247.41
2023-04-11T16:51:14.448Z,94263.22
2023-04-11T16:53:42.483Z,94263.22
2023-04-11T16:56:12.556Z,94257.13
2023-04-11T16:58:40.978Z,94253.56
2023-04-11T17:01:10.281Z,94259.16
2023-04-11T17:03:39.693Z,94255.69
2023-04-11T17:06:13.541Z,94254.34
2023-04-11T17:08:43.112Z,94193.63
2023-04-11T17:11:12.787Z,94255.06
2023-04-11T17:13:42.377Z,94208.13
2023-04-11T17:16:10.718Z,94259.41
2023-04-11T17:18:39.225Z,94260.69
2023-04-11T17:21:07.852Z,94249.34
2023-04-11T17:23:43.173Z,94261.31
2023-04-11T17:26:13.173Z,94260.59
2023-04-11T17:28:42.583Z,94256.81
2023-04-11T17:31:14.627Z,94261.22
2023-04-11T17:33:44.087Z,94250.16
2023-04-11T17:36:13.621Z,94261.00
2023-04-11T17:38:43.526Z,94267.75
2023-04-11T17:41:15.452Z,94256.09
2023-04-11T17:43:43.902Z,94274.59
2023-04-11T17:46:12.878Z,94280.03
2023-04-11T17:48:40.985Z,94286.41
2023-04-11T17:51:10.469Z,94277.59
2023-04-11T17:53:38.476Z,94290.47
2023-04-11T17:56:09.686Z,94287.34
2023-04-11T17:58:42.615Z,94285.38
2023-04-11T18:01:11.753Z,94285.63
2023-04-11T18:03:41.490Z,94292.03
2023-04-11T18:06:09.916Z,94293.00
2023-04-11T18:08:50.534Z,94310.09
2023-04-11T18:11:19.384Z,94305.59
2023-04-11T18:13:50.527Z,94307.56
2023-04-11T18:16:18.984Z,94311.75
2023-04-11T18:18:48.402Z,94312.03
2023-04-11T18:21:17.713Z,94303.91
2023-04-11T18:23:45.972Z,94262.31
2023-04-11T18:26:14.121Z,94299.44
2023-04-11T18:28:42.281Z,94300.38
2023-04-11T18:31:12.044Z,94319.56
2023-04-11T18:33:43.414Z,94304.47
2023-04-11T18:36:13.146Z,94320.56
2023-04-11T18:38:41.498Z,94317.72
2023-04-11T18:41:09.702Z,94333.00
2023-04-11T18:43:38.682Z,94328.56
2023-04-11T18:46:09.748Z,94331.16
2023-04-11T18:48:39.375Z,94323.03
2023-04-11T18:51:08.949Z,94324.78
2023-04-11T18:53:37.012Z,94326.00
2023-04-11T18:56:05.487Z,94318.13
2023-04-11T18:58:35.172Z,94328.16
2023-04-11T19:01:14.806Z,94323.56
2023-04-11T19:03:46.371Z,94322.63
2023-04-11T19:06:15.121Z,94316.44
2023-04-11T19:08:43.081Z,94315.53
2023-04-11T19:11:11.179Z,94310.41
2023-04-11T19:13:39.657Z,94313.13
2023-04-11T19:16:08.244Z,94313.22
2023-04-11T19:18:36.495Z,94300.97
2023-04-11T19:21:07.982Z,94313.16
2023-04-11T19:23:37.849Z,94216.94
2023-04-11T19:26:06.353Z,94309.78
2023-04-11T19:28:34.610Z,94313.91
2023-04-11T19:31:02.928Z,94295.66
2023-04-11T19:33:31.578Z,94295.47
2023-04-11T19:35:59.596Z,94298.66
2023-04-11T19:38:29.260Z,94291.59
2023-04-11T19:40:57.196Z,94297.56
2023-04-11T19:43:25.169Z,94302.59
2023-04-11T19:45:55.151Z,94291.69
2023-04-11T19:48:23.307Z,94303.56
2023-04-11T19:50:53.636Z,94295.16
2023-04-11T19:53:22.088Z,94286.88
2023-04-11T19:55:56.719Z,94295.88
2023-04-11T19:58:24.797Z,94295.88
2023-04-11T20:00:53.381Z,94206.56
2023-04-11T20:03:21.962Z,94293.31
2023-04-11T20:05:50.380Z,94301.50
2023-04-11T20:08:19.243Z,94289.38
2023-04-11T20:10:47.117Z,94287.81
2023-04-11T20:13:17.328Z,94277.63
2023-04-11T20:15:53.925Z,94295.47
2023-04-11T20:18:21.913Z,94282.84
2023-04-11T20:20:50.083Z,94281.16
2023-04-11T20:23:18.324Z,94285.28
2023-04-11T20:25:46.529Z,94292.16
2023-04-11T20:28:15.036Z,94285.19
2023-04-11T20:30:44.761Z,94281.38
2023-04-11T20:33:13.174Z,94274.09
2023-04-11T20:35:41.214Z,94276.72
2023-04-11T20:38:09.582Z,94270.72
2023-04-11T20:40:38.869Z,94267.00
2023-04-11T20:43:06.829Z,94270.72
2023-04-11T20:45:36.360Z,94266.66
2023-04-11T20:48:09.138Z,94273.16
2023-04-11T20:50:37.805Z,94271.09
2023-04-11T20:53:05.991Z,94263.66
2023-04-11T20:55:34.596Z,94254.31
2023-04-11T20:58:04.009Z,94266.06
2023-04-11T21:00:32.286Z,94261.59
2023-04-11T21:03:00.516Z,94265.31
2023-04-11T21:05:32.908Z,94262.34
2023-04-11T21:08:02.355Z,94274.09
2023-04-11T21:10:30.716Z,94261.97
2023-04-11T21:12:58.855Z,94259.16
2023-04-11T21:15:26.853Z,94265.31
2023-04-11T21:17:54.872Z,94266.25
2023-04-11T21:20:23.418Z,94270.75
2023-04-11T21:22:54.672Z,94262.44
2023-04-11T21:25:23.467Z,94265.03
2023-04-11T21:27:51.577Z,94276.13
2023-04-11T21:30:20.277Z,94273.16
2023-04-11T21:32:49.212Z,94262.25
2023-04-11T21:35:17.669Z,94265.50
2023-04-11T21:37:48.489Z,94277.72
2023-04-11T21:40:18.922Z,94255.63
2023-04-11T21:42:47.004Z,94275.97
2023-04-11T21:45:15.049Z,94270.28
2023-04-11T21:47:43.154Z,94259.16
2023-04-11T21:50:12.359Z,94262.16
2023-04-11T21:52:40.975Z,94259.72
2023-04-11T21:55:09.927Z,94248.81
2023-04-11T21:57:39.888Z,94275.41
2023-04-11T22:00:11.168Z,94262.72
2023-04-11T22:02:39.853Z,94251.81
2023-04-11T22:05:10.022Z,94264.78
2023-04-11T22:07:47.615Z,94246.00
2023-04-11T22:10:16.061Z,94261.03
2023-04-11T22:12:47.539Z,94264.22
2023-04-11T22:15:18.496Z,94261.75
2023-04-11T22:17:51.266Z,94263.91
2023-04-11T22:20:20.059Z,94254.31
2023-04-11T22:22:48.360Z,94258.59
2023-04-11T22:25:18.601Z,94262.91
2023-04-11T22:27:47.982Z,94254.97
2023-04-11T22:30:17.851Z,94250.97
2023-04-11T22:32:47.254Z,94251.78
2023-04-11T22:35:15.845Z,94247.88
2023-04-11T22:37:44.982Z,94245.09
2023-04-11T22:40:15.064Z,94253.19
2023-04-11T22:42:43.315Z,94239.38
2023-04-11T22:45:15.641Z,94227.81
2023-04-11T22:47:46.230Z,94250.56
2023-04-11T22:50:15.720Z,94244.25
2023-04-11T22:52:43.930Z,94248.16
2023-04-11T22:55:12.478Z,94244.03
2023-04-11T22:57:41.032Z,94237.16
2023-04-11T23:00:12.829Z,94233.88
2023-04-11T23:02:42.533Z,94238.34
2023-04-11T23:05:11.368Z,94233.53
2023-04-11T23:07:39.440Z,94220.16
2023-04-11T23:10:10.606Z,94223.91
2023-04-11T23:12:40.494Z,94232.09
2023-04-11T23:15:09.656Z,94222.41
2023-04-11T23:17:40.202Z,94218.84
2023-04-11T23:20:13.966Z,94218.13
2023-04-11T23:22:43.938Z,94203.00
2023-04-11T23:25:12.788Z,94216.63
2023-04-11T23:27:41.257Z,94208.13
2023-04-11T23:30:11.938Z,94215.88
2023-04-11T23:32:41.673Z,94206.75
2023-04-11T23:35:13.080Z,94194.34
2023-04-11T23:37:41.464Z,94192.59
2023-04-11T23:40:14.065Z,94181.78
2023-04-11T23:42:42.869Z,94178.31
2023-04-11T23:45:12.819Z,94186.91
2023-04-11T23:47:40.869Z,94187.56
2023-04-11T23:50:12.269Z,94185.50
2023-04-11T23:52:40.618Z,94193.34
2023-04-11T23:55:10.752Z,94169.63
2023-04-11T23:57:38.956Z,94173.84
